createdAt,value
2019-01-15T00:00:37.795Z,41.28
2019-01-15T00:01:37.822Z,41.23
2019-01-15T00:02:37.656Z,41.22
2019-01-15T00:03:38.021Z,41.22
2019-01-15T00:04:38.403Z,41.22
2019-01-15T00:05:37.679Z,41.18
2019-01-15T00:06:37.451Z,41.26
2019-01-15T00:07:38.056Z,41.21
2019-01-15T00:08:38.319Z,41.23
2019-01-15T00:09:37.896Z,41.26
2019-01-15T00:10:37.770Z,41.25
2019-01-15T00:11:37.705Z,41.23
2019-01-15T00:12:38.541Z,41.25
2019-01-15T00:13:37.498Z,41.24
2019-01-15T00:14:37.675Z,41.16
2019-01-15T00:15:37.559Z,41.24
2019-01-15T00:16:38.045Z,41.21
2019-01-15T00:17:37.860Z,41.22
2019-01-15T00:18:39.460Z,41.21
2019-01-15T00:19:37.954Z,41.25
2019-01-15T00:20:37.415Z,41.19
2019-01-15T00:21:37.585Z,41.24
2019-01-15T00:22:37.797Z,41.23
2019-01-15T00:23:37.774Z,41.23
2019-01-15T00:24:37.563Z,41.24
2019-01-15T00:25:37.568Z,41.26
2019-01-15T00:26:38.251Z,41.22
2019-01-15T00:27:37.712Z,41.24
2019-01-15T00:28:37.572Z,41.26
2019-01-15T00:29:37.684Z,41.23
2019-01-15T00:30:37.942Z,41.22
2019-01-15T00:31:37.989Z,41.22
2019-01-15T00:32:37.526Z,41.23
2019-01-15T00:33:37.560Z,41.21
2019-01-15T00:34:37.853Z,41.25
2019-01-15T00:35:37.804Z,41.21
2019-01-15T00:36:37.854Z,41.24
2019-01-15T00:37:37.838Z,41.21
2019-01-15T00:38:37.822Z,41.23
2019-01-15T00:39:37.550Z,41.26
2019-01-15T00:40:38.010Z,41.24
2019-01-15T00:41:37.785Z,41.24
2019-01-15T00:42:38.563Z,41.22
2019-01-15T00:43:38.468Z,41.23
2019-01-15T00:44:37.904Z,41.25
2019-01-15T00:45:38.061Z,41.28
2019-01-15T00:46:37.483Z,41.27
2019-01-15T00:47:37.501Z,41.22
2019-01-15T00:48:37.616Z,41.24
2019-01-15T00:49:37.759Z,41.27
2019-01-15T00:50:37.855Z,41.27
2019-01-15T00:51:37.585Z,41.25
2019-01-15T00:52:37.691Z,41.32
2019-01-15T00:53:37.640Z,41.26
2019-01-15T00:54:37.618Z,41.28
2019-01-15T00:55:37.590Z,41.28
2019-01-15T00:56:37.658Z,41.3
2019-01-15T00:57:37.774Z,41.27
2019-01-15T00:58:37.625Z,41.28
2019-01-15T00:59:37.603Z,41.26
2019-01-15T01:00:37.700Z,41.27
2019-01-15T01:01:37.590Z,41.31
2019-01-15T01:02:37.684Z,41.27
2019-01-15T01:03:37.689Z,41.28
2019-01-15T01:04:38.067Z,41.29
2019-01-15T01:05:37.871Z,41.27
2019-01-15T01:06:37.913Z,41.28
2019-01-15T01:07:37.886Z,41.29
2019-01-15T01:08:38.010Z,41.28
2019-01-15T01:09:37.555Z,41.27
2019-01-15T01:10:37.509Z,41.27
2019-01-15T01:11:37.552Z,41.26
2019-01-15T01:12:37.552Z,41.28
2019-01-15T01:13:37.688Z,41.23
2019-01-15T01:14:37.859Z,41.25
2019-01-15T01:15:38.260Z,41.28
2019-01-15T01:16:37.896Z,41.28
2019-01-15T01:17:37.646Z,41.29
2019-01-15T01:18:37.782Z,41.31
2019-01-15T01:19:38.178Z,41.28
2019-01-15T01:20:37.631Z,41.3
2019-01-15T01:21:37.837Z,41.27
2019-01-15T01:22:37.762Z,41.28
2019-01-15T01:23:37.551Z,41.27
2019-01-15T01:24:38.113Z,41.26
2019-01-15T01:25:37.943Z,41.27
2019-01-15T01:26:37.955Z,41.22
2019-01-15T01:27:37.922Z,41.24
2019-01-15T01:28:37.673Z,41.28
2019-01-15T01:29:37.809Z,41.29
2019-01-15T01:30:37.508Z,41.29
2019-01-15T01:31:38.078Z,41.27
2019-01-15T01:32:38.176Z,41.26
2019-01-15T01:33:37.859Z,41.26
2019-01-15T01:34:37.906Z,41.3
2019-01-15T01:35:37.877Z,41.26
2019-01-15T01:36:38.013Z,41.26
2019-01-15T01:37:39.309Z,41.27
2019-01-15T01:38:37.737Z,41.24
2019-01-15T01:39:37.701Z,41.26
2019-01-15T01:40:37.713Z,41.28
2019-01-15T01:41:37.843Z,41.3
2019-01-15T01:42:37.705Z,41.22
2019-01-15T01:43:38.033Z,41.21
2019-01-15T01:44:37.639Z,41.26
2019-01-15T01:45:38.008Z,41.25
2019-01-15T01:46:37.890Z,41.24
2019-01-15T01:47:37.953Z,41.28
2019-01-15T01:48:38.079Z,41.24
2019-01-15T01:49:37.854Z,41.23
2019-01-15T01:50:37.711Z,41.27
2019-01-15T01:51:37.878Z,41.3
2019-01-15T01:52:38.256Z,41.29
2019-01-15T01:53:37.815Z,41.27
2019-01-15T01:54:37.822Z,41.28
2019-01-15T01:55:39.387Z,41.29
2019-01-15T01:56:38.332Z,41.29
2019-01-15T01:57:37.706Z,41.33
2019-01-15T01:58:37.885Z,41.28
2019-01-15T01:59:37.808Z,41.27
2019-01-15T02:00:37.835Z,41.28
2019-01-15T02:01:38.127Z,41.25
2019-01-15T02:02:37.406Z,41.28
2019-01-15T02:03:38.195Z,41.29
2019-01-15T02:04:37.566Z,41.26
2019-01-15T02:05:37.468Z,41.27
2019-01-15T02:06:37.808Z,41.29
2019-01-15T02:07:37.544Z,41.29
2019-01-15T02:08:37.898Z,41.27
2019-01-15T02:09:37.952Z,41.33
2019-01-15T02:10:37.825Z,41.3
2019-01-15T02:11:37.552Z,41.3
2019-01-15T02:12:37.990Z,41.27
2019-01-15T02:13:37.504Z,41.26
2019-01-15T02:14:37.568Z,41.25
2019-01-15T02:15:38.034Z,41.29
2019-01-15T02:16:37.549Z,41.25
2019-01-15T02:17:37.890Z,41.29
2019-01-15T02:18:37.969Z,41.32
2019-01-15T02:19:37.438Z,41.29
2019-01-15T02:20:37.512Z,41.29
2019-01-15T02:21:37.693Z,41.29
2019-01-15T02:22:37.547Z,41.29
2019-01-15T02:23:37.624Z,41.32
2019-01-15T02:24:37.684Z,41.33
2019-01-15T02:25:37.832Z,41.27
2019-01-15T02:26:38.159Z,41.29
2019-01-15T02:27:37.437Z,41.35
2019-01-15T02:28:37.853Z,41.32
2019-01-15T02:29:37.666Z,41.33
2019-01-15T02:30:37.530Z,41.31
2019-01-15T02:31:37.826Z,41.25
2019-01-15T02:32:37.886Z,41.31
2019-01-15T02:33:37.597Z,41.31
2019-01-15T02:34:37.912Z,41.28
2019-01-15T02:35:37.652Z,41.3
2019-01-15T02:36:37.930Z,41.29
2019-01-15T02:37:38.337Z,41.28
2019-01-15T02:38:37.586Z,41.3
2019-01-15T02:39:37.717Z,41.35
2019-01-15T02:40:37.780Z,41.33
2019-01-15T02:41:37.694Z,41.31
2019-01-15T02:42:47.227Z,41.29
2019-01-15T02:43:37.573Z,41.31
2019-01-15T02:44:37.573Z,41.28
2019-01-15T02:45:37.795Z,41.35
2019-01-15T02:46:37.615Z,41.32
2019-01-15T02:47:37.678Z,41.29
2019-01-15T02:48:37.913Z,41.31
2019-01-15T02:49:37.556Z,41.31
2019-01-15T02:50:37.720Z,41.3
2019-01-15T02:51:37.698Z,41.3
2019-01-15T02:52:37.639Z,41.28
2019-01-15T02:53:37.774Z,41.33
2019-01-15T02:54:37.739Z,41.34
2019-01-15T02:55:37.609Z,41.33
2019-01-15T02:56:37.641Z,41.32
2019-01-15T02:57:38.066Z,41.3
2019-01-15T02:58:38.439Z,41.3
2019-01-15T02:59:37.474Z,41.3
2019-01-15T03:00:37.882Z,41.33
2019-01-15T03:01:38.600Z,41.34
2019-01-15T03:02:37.511Z,41.28
2019-01-15T03:03:37.578Z,41.33
2019-01-15T03:04:37.706Z,41.31
2019-01-15T03:05:37.713Z,41.33
2019-01-15T03:06:37.586Z,41.34
2019-01-15T03:07:37.717Z,41.34
2019-01-15T03:08:38.311Z,41.35
2019-01-15T03:09:37.767Z,41.36
2019-01-15T03:10:37.344Z,41.37
2019-01-15T03:11:37.950Z,41.39
2019-01-15T03:12:38.067Z,41.33
2019-01-15T03:13:37.334Z,41.36
2019-01-15T03:14:37.570Z,41.33
2019-01-15T03:15:37.552Z,41.34
2019-01-15T03:16:37.786Z,41.31
2019-01-15T03:17:37.562Z,41.32
2019-01-15T03:18:37.565Z,41.34
2019-01-15T03:19:37.832Z,41.37
2019-01-15T03:20:39.389Z,41.35
2019-01-15T03:21:37.890Z,41.36
2019-01-15T03:22:37.627Z,41.36
2019-01-15T03:23:37.648Z,41.37
2019-01-15T03:24:37.710Z,41.38
2019-01-15T03:25:37.568Z,41.34
2019-01-15T03:26:37.758Z,41.37
2019-01-15T03:27:37.697Z,41.4
2019-01-15T03:28:37.532Z,41.38
2019-01-15T03:29:37.779Z,41.34
2019-01-15T03:30:38.084Z,41.38
2019-01-15T03:31:38.029Z,41.39
2019-01-15T03:32:37.795Z,41.35
2019-01-15T03:33:38.022Z,41.33
2019-01-15T03:34:37.677Z,41.35
2019-01-15T03:35:37.557Z,41.35
2019-01-15T03:36:37.962Z,41.38
2019-01-15T03:37:38.936Z,41.34
2019-01-15T03:38:39.496Z,41.39
2019-01-15T03:39:37.822Z,41.39
2019-01-15T03:40:37.735Z,41.36
2019-01-15T03:41:37.667Z,41.35
2019-01-15T03:42:37.903Z,41.35
2019-01-15T03:43:38.215Z,41.35
2019-01-15T03:44:37.357Z,41.36
2019-01-15T03:45:37.859Z,41.35
2019-01-15T03:46:38.231Z,41.36
2019-01-15T03:47:37.721Z,41.37
2019-01-15T03:48:37.586Z,41.38
2019-01-15T03:49:37.826Z,41.4
2019-01-15T03:50:37.733Z,41.38
2019-01-15T03:51:37.760Z,41.36
2019-01-15T03:52:37.592Z,41.33
2019-01-15T03:53:37.676Z,41.36
2019-01-15T03:54:37.626Z,41.35
2019-01-15T03:55:38.434Z,41.38
2019-01-15T03:56:37.689Z,41.33
2019-01-15T03:57:37.501Z,41.37
2019-01-15T03:58:37.895Z,41.35
2019-01-15T03:59:37.660Z,41.33
2019-01-15T04:00:37.589Z,41.33
2019-01-15T04:01:37.740Z,41.33
2019-01-15T04:02:37.525Z,41.36
2019-01-15T04:03:37.639Z,41.4
2019-01-15T04:04:37.394Z,41.35
2019-01-15T04:05:37.683Z,41.34
2019-01-15T04:06:38.061Z,41.39
2019-01-15T04:07:37.399Z,41.37
2019-01-15T04:08:37.791Z,41.37
2019-01-15T04:09:37.596Z,41.36
2019-01-15T04:10:37.411Z,41.36
2019-01-15T04:11:37.942Z,41.32
2019-01-15T04:12:37.734Z,41.34
2019-01-15T04:13:37.368Z,41.35
2019-01-15T04:14:37.801Z,41.4
2019-01-15T04:15:37.733Z,41.34
2019-01-15T04:16:37.610Z,41.37
2019-01-15T04:17:37.633Z,41.39
2019-01-15T04:18:37.487Z,41.38
2019-01-15T04:19:37.641Z,41.35
2019-01-15T04:20:37.838Z,41.4
2019-01-15T04:21:37.639Z,41.34
2019-01-15T04:22:37.622Z,41.32
2019-01-15T04:23:37.658Z,41.41
2019-01-15T04:24:37.360Z,41.38
2019-01-15T04:25:37.649Z,41.39
2019-01-15T04:26:37.782Z,41.39
2019-01-15T04:27:37.798Z,41.38
2019-01-15T04:28:38.396Z,41.38
2019-01-15T04:29:37.857Z,41.37
2019-01-15T04:30:37.813Z,41.39
2019-01-15T04:31:37.957Z,41.4
2019-01-15T04:32:37.664Z,41.35
2019-01-15T04:33:37.719Z,41.35
2019-01-15T04:34:37.861Z,41.32
2019-01-15T04:35:37.644Z,41.38
2019-01-15T04:36:37.619Z,41.35
2019-01-15T04:37:38.321Z,41.34
2019-01-15T04:38:37.574Z,41.34
2019-01-15T04:39:37.862Z,41.3
2019-01-15T04:40:37.624Z,41.29
2019-01-15T04:41:37.804Z,41.33
2019-01-15T04:42:37.580Z,41.33
2019-01-15T04:43:38.055Z,41.31
2019-01-15T04:44:37.473Z,41.34
2019-01-15T04:45:37.482Z,41.36
2019-01-15T04:46:37.431Z,41.37
2019-01-15T04:47:37.646Z,41.35
2019-01-15T04:48:37.523Z,41.34
2019-01-15T04:49:37.365Z,41.41
2019-01-15T04:50:37.731Z,41.34
2019-01-15T04:51:37.624Z,41.34
2019-01-15T04:52:37.958Z,41.32
2019-01-15T04:53:37.610Z,41.35
2019-01-15T04:54:37.701Z,41.31
2019-01-15T04:55:37.347Z,41.28
2019-01-15T04:56:37.783Z,41.28
2019-01-15T04:57:37.543Z,41.27
2019-01-15T04:58:37.375Z,41.28
2019-01-15T04:59:37.712Z,41.24
2019-01-15T05:00:37.659Z,41.33
2019-01-15T05:01:37.589Z,41.29
2019-01-15T05:02:37.959Z,41.27
2019-01-15T05:03:37.695Z,41.24
2019-01-15T05:04:37.880Z,41.27
2019-01-15T05:05:37.771Z,41.29
2019-01-15T05:06:37.440Z,41.3
2019-01-15T05:07:37.661Z,41.21
2019-01-15T05:08:37.936Z,41.29
2019-01-15T05:09:37.657Z,41.27
2019-01-15T05:10:37.843Z,41.25
2019-01-15T05:11:37.576Z,41.25
2019-01-15T05:12:37.412Z,41.23
2019-01-15T05:13:37.493Z,41.22
2019-01-15T05:14:37.590Z,41.2
2019-01-15T05:15:37.455Z,41.16
2019-01-15T05:16:37.754Z,41.13
2019-01-15T05:17:38.876Z,41.1
2019-01-15T05:18:37.545Z,41.08
2019-01-15T05:19:37.586Z,41.09
2019-01-15T05:20:37.660Z,41.05
2019-01-15T05:21:38.441Z,41.04
2019-01-15T05:22:37.648Z,41.01
2019-01-15T05:23:37.760Z,41.33
2019-01-15T05:24:37.810Z,41.02
2019-01-15T05:25:37.829Z,41
2019-01-15T05:26:37.944Z,41.02
2019-01-15T05:27:37.748Z,40.98
2019-01-15T05:28:37.633Z,40.97
2019-01-15T05:29:37.348Z,40.95
2019-01-15T05:30:37.752Z,40.97
2019-01-15T05:31:38.070Z,40.93
2019-01-15T05:32:37.608Z,40.97
2019-01-15T05:33:37.786Z,41.01
2019-01-15T05:34:37.881Z,40.89
2019-01-15T05:35:38.424Z,40.96
2019-01-15T05:36:37.950Z,40.94
2019-01-15T05:37:37.622Z,40.97
2019-01-15T05:38:37.979Z,40.92
2019-01-15T05:39:37.690Z,40.92
2019-01-15T05:40:38.000Z,40.98
2019-01-15T05:41:37.471Z,40.93
2019-01-15T05:42:38.478Z,40.89
2019-01-15T05:43:37.331Z,40.95
2019-01-15T05:44:37.810Z,40.96
2019-01-15T05:45:37.794Z,40.92
2019-01-15T05:46:37.656Z,40.95
2019-01-15T05:47:37.525Z,40.91
2019-01-15T05:48:37.593Z,40.87
2019-01-15T05:49:37.852Z,40.95
2019-01-15T05:50:37.732Z,40.92
2019-01-15T05:51:37.751Z,40.92
2019-01-15T05:52:37.686Z,40.92
2019-01-15T05:53:37.529Z,40.95
2019-01-15T05:54:37.604Z,40.95
2019-01-15T05:55:37.420Z,40.94
2019-01-15T05:56:37.693Z,40.88
2019-01-15T05:57:37.745Z,40.97
2019-01-15T05:58:37.925Z,40.9
2019-01-15T05:59:37.705Z,40.87
2019-01-15T06:00:37.398Z,40.9
2019-01-15T06:01:37.707Z,40.88
2019-01-15T06:02:37.617Z,40.87
2019-01-15T06:03:37.317Z,40.86
2019-01-15T06:04:37.628Z,40.89
2019-01-15T06:05:37.946Z,40.85
2019-01-15T06:06:37.693Z,40.91
2019-01-15T06:07:37.816Z,40.88
2019-01-15T06:08:37.877Z,40.84
2019-01-15T06:09:37.776Z,40.85
2019-01-15T06:10:37.716Z,40.86
2019-01-15T06:11:37.603Z,40.85
2019-01-15T06:12:37.825Z,40.85
2019-01-15T06:13:42.947Z,40.87
2019-01-15T06:14:37.537Z,40.82
2019-01-15T06:15:37.338Z,40.87
2019-01-15T06:16:37.861Z,40.82
2019-01-15T06:17:37.787Z,40.82
2019-01-15T06:18:39.360Z,40.84
2019-01-15T06:19:39.488Z,40.78
2019-01-15T06:20:37.648Z,40.78
2019-01-15T06:21:37.569Z,40.81
2019-01-15T06:22:37.358Z,40.76
2019-01-15T06:23:37.790Z,40.75
2019-01-15T06:24:37.612Z,40.76
2019-01-15T06:25:37.942Z,40.75
2019-01-15T06:26:37.591Z,40.72
2019-01-15T06:27:39.389Z,40.77
2019-01-15T06:28:39.196Z,40.78
2019-01-15T06:29:37.463Z,40.7
2019-01-15T06:30:37.573Z,38.69
2019-01-15T06:31:37.784Z,38.18
2019-01-15T06:32:37.658Z,37.84
2019-01-15T06:33:38.575Z,37.38
2019-01-15T06:34:38.847Z,37.15
2019-01-15T06:35:39.356Z,37.03
2019-01-15T06:36:39.011Z,37.14
2019-01-15T06:37:37.633Z,37.17
2019-01-15T06:38:37.658Z,37.76
2019-01-15T06:39:37.891Z,37.84
2019-01-15T06:40:37.417Z,38.22
2019-01-15T06:41:37.996Z,38.42
2019-01-15T06:42:37.859Z,38.6
2019-01-15T06:43:37.642Z,38.65
2019-01-15T06:44:37.710Z,38.44
2019-01-15T06:45:38.298Z,38.61
2019-01-15T06:46:37.989Z,38.51
2019-01-15T06:47:37.430Z,38.92
2019-01-15T06:48:37.921Z,39.09
2019-01-15T06:49:37.407Z,38.97
2019-01-15T06:50:37.470Z,38.93
2019-01-15T06:51:37.619Z,39.03
2019-01-15T06:52:37.586Z,39.07
2019-01-15T06:53:37.808Z,39.14
2019-01-15T06:54:37.545Z,39.09
2019-01-15T06:55:37.273Z,39.12
2019-01-15T06:56:37.591Z,39.12
2019-01-15T06:57:37.869Z,39.14
2019-01-15T06:58:37.740Z,39.17
2019-01-15T06:59:37.425Z,39.2
2019-01-15T07:00:38.481Z,39.23
2019-01-15T07:01:37.699Z,39.24
2019-01-15T07:02:37.934Z,39.24
2019-01-15T07:03:38.257Z,39.26
2019-01-15T07:04:44.109Z,39.28
2019-01-15T07:05:37.517Z,39.32
2019-01-15T07:06:37.340Z,39.35
2019-01-15T07:07:37.857Z,39.31
2019-01-15T07:08:37.589Z,39.29
2019-01-15T07:09:37.655Z,39.36
2019-01-15T07:10:38.471Z,39.35
2019-01-15T07:11:37.806Z,39.38
2019-01-15T07:12:39.290Z,39.32
2019-01-15T07:13:37.626Z,39.39
2019-01-15T07:14:37.541Z,39.38
2019-01-15T07:15:37.673Z,39.44
2019-01-15T07:16:37.797Z,39.39
2019-01-15T07:17:37.671Z,39.41
2019-01-15T07:18:37.717Z,39.46
2019-01-15T07:19:37.724Z,39.43
2019-01-15T07:20:38.142Z,39.51
2019-01-15T07:21:37.637Z,39.46
2019-01-15T07:22:37.501Z,39.47
2019-01-15T07:23:37.661Z,39.49
2019-01-15T07:24:37.964Z,39.48
2019-01-15T07:25:37.532Z,39.45
2019-01-15T07:26:37.612Z,39.52
2019-01-15T07:27:37.736Z,39.54
2019-01-15T07:28:37.796Z,39.57
2019-01-15T07:29:37.781Z,39.56
2019-01-15T07:30:37.572Z,39.58
2019-01-15T07:31:37.401Z,39.61
2019-01-15T07:32:37.379Z,39.61
2019-01-15T07:33:37.325Z,39.62
2019-01-15T07:34:37.712Z,39.65
2019-01-15T07:35:37.360Z,39.62
2019-01-15T07:36:37.426Z,39.61
2019-01-15T07:37:37.713Z,39.62
2019-01-15T07:38:37.364Z,39.67
2019-01-15T07:39:37.653Z,39.66
2019-01-15T07:40:37.604Z,39.68
2019-01-15T07:41:37.667Z,39.67
2019-01-15T07:42:37.456Z,39.71
2019-01-15T07:43:37.603Z,39.67
2019-01-15T07:44:37.651Z,39.71
2019-01-15T07:45:37.915Z,39.69
2019-01-15T07:46:37.256Z,39.73
2019-01-15T07:47:37.706Z,39.74
2019-01-15T07:48:37.747Z,39.75
2019-01-15T07:49:37.382Z,39.72
2019-01-15T07:50:37.825Z,39.78
2019-01-15T07:51:38.650Z,39.78
2019-01-15T07:52:37.572Z,39.77
2019-01-15T07:53:37.700Z,39.81
2019-01-15T07:54:37.532Z,39.78
2019-01-15T07:55:37.755Z,39.77
2019-01-15T07:56:37.869Z,39.79
2019-01-15T07:57:37.739Z,39.8
2019-01-15T07:58:37.524Z,39.77
2019-01-15T07:59:37.526Z,39.84
2019-01-15T08:00:37.717Z,39.85
2019-01-15T08:01:37.440Z,39.83
2019-01-15T08:02:37.698Z,39.83
2019-01-15T08:03:37.411Z,39.84
2019-01-15T08:04:37.798Z,39.87
2019-01-15T08:05:37.660Z,39.83
2019-01-15T08:06:37.739Z,39.84
2019-01-15T08:07:37.430Z,39.88
2019-01-15T08:08:37.543Z,39.89
2019-01-15T08:09:37.407Z,39.87
2019-01-15T08:10:37.787Z,39.88
2019-01-15T08:11:37.797Z,39.92
2019-01-15T08:12:37.817Z,39.87
2019-01-15T08:13:37.401Z,39.85
2019-01-15T08:14:37.534Z,39.86
2019-01-15T08:15:37.606Z,39.87
2019-01-15T08:16:37.741Z,39.9
2019-01-15T08:17:37.672Z,39.96
2019-01-15T08:18:37.611Z,39.9
2019-01-15T08:19:37.483Z,39.87
2019-01-15T08:20:37.343Z,39.9
2019-01-15T08:21:37.636Z,39.9
2019-01-15T08:22:37.878Z,39.95
2019-01-15T08:23:37.727Z,39.92
2019-01-15T08:24:37.748Z,39.92
2019-01-15T08:25:37.656Z,39.89
2019-01-15T08:26:37.383Z,39.92
2019-01-15T08:27:37.454Z,39.86
2019-01-15T08:28:37.863Z,39.92
2019-01-15T08:29:37.686Z,39.95
2019-01-15T08:30:37.406Z,39.94
2019-01-15T08:31:38.042Z,39.94
2019-01-15T08:32:37.433Z,39.94
2019-01-15T08:33:37.813Z,39.92
2019-01-15T08:34:37.748Z,39.94
2019-01-15T08:35:37.556Z,39.93
2019-01-15T08:36:37.579Z,39.89
2019-01-15T08:37:39.175Z,39.94
2019-01-15T08:38:37.820Z,39.96
2019-01-15T08:39:38.066Z,39.95
2019-01-15T08:40:37.279Z,39.95
2019-01-15T08:41:37.627Z,39.99
2019-01-15T08:42:37.424Z,39.97
2019-01-15T08:43:37.446Z,39.92
2019-01-15T08:44:37.389Z,39.97
2019-01-15T08:45:37.630Z,39.97
2019-01-15T08:46:37.633Z,39.97
2019-01-15T08:47:37.787Z,39.98
2019-01-15T08:48:37.733Z,40
2019-01-15T08:49:37.649Z,39.96
2019-01-15T08:50:37.834Z,39.99
2019-01-15T08:51:37.628Z,39.97
2019-01-15T08:52:39.230Z,39.95
2019-01-15T08:53:37.498Z,39.96
2019-01-15T08:54:37.841Z,39.98
2019-01-15T08:55:37.947Z,39.95
2019-01-15T08:56:37.500Z,39.95
2019-01-15T08:57:37.603Z,39.93
2019-01-15T08:58:39.266Z,39.95
2019-01-15T08:59:37.528Z,39.95
2019-01-15T09:00:38.449Z,39.96
2019-01-15T09:01:37.435Z,39.99
2019-01-15T09:02:37.524Z,39.99
2019-01-15T09:03:37.540Z,39.99
2019-01-15T09:04:38.470Z,40.04
2019-01-15T09:05:38.032Z,40
2019-01-15T09:06:37.686Z,40.01
2019-01-15T09:07:37.370Z,39.99
2019-01-15T09:08:37.686Z,40.02
2019-01-15T09:09:37.622Z,39.97
2019-01-15T09:10:37.684Z,40.34
2019-01-15T09:11:37.699Z,40.35
2019-01-15T09:12:37.573Z,40.28
2019-01-15T09:13:37.639Z,40.49
2019-01-15T09:14:37.640Z,40.76
2019-01-15T09:15:37.626Z,40.78
2019-01-15T09:16:37.692Z,40.8
2019-01-15T09:17:37.435Z,40.9
2019-01-15T09:18:37.713Z,40.92
2019-01-15T09:19:37.430Z,40.87
2019-01-15T09:20:37.592Z,40.86
2019-01-15T09:21:37.435Z,41.02
2019-01-15T09:22:37.347Z,41.02
2019-01-15T09:23:37.518Z,40.78
2019-01-15T09:24:37.686Z,41.05
2019-01-15T09:25:37.729Z,41
2019-01-15T09:26:37.909Z,40.8
2019-01-15T09:27:37.682Z,40.92
2019-01-15T09:28:37.334Z,40.75
2019-01-15T09:29:37.492Z,40.84
2019-01-15T09:30:37.391Z,40.94
2019-01-15T09:31:37.294Z,40.88
2019-01-15T09:32:37.933Z,40.77
2019-01-15T09:33:37.658Z,40.94
2019-01-15T09:34:37.462Z,41.27
2019-01-15T09:35:37.871Z,41.07
2019-01-15T09:36:38.012Z,41.07
2019-01-15T09:37:37.743Z,41
2019-01-15T09:38:37.953Z,41.09
2019-01-15T09:39:37.983Z,40.75
2019-01-15T09:40:38.347Z,40.64
2019-01-15T09:41:37.680Z,40.95
2019-01-15T09:42:37.773Z,40.9
2019-01-15T09:43:37.663Z,40.88
2019-01-15T09:44:37.875Z,40.95
2019-01-15T09:45:38.023Z,40.72
2019-01-15T09:46:37.644Z,40.91
2019-01-15T09:47:37.450Z,40.82
2019-01-15T09:48:37.641Z,41.06
2019-01-15T09:49:37.629Z,41.08
2019-01-15T09:50:37.629Z,41.04
2019-01-15T09:51:39.430Z,40.73
2019-01-15T09:52:37.207Z,40.71
2019-01-15T09:53:38.265Z,40.88
2019-01-15T09:54:37.518Z,41.03
2019-01-15T09:55:38.014Z,40.77
2019-01-15T09:56:37.678Z,40.7
2019-01-15T09:57:37.419Z,40.74
2019-01-15T09:58:37.455Z,40.81
2019-01-15T09:59:37.482Z,40.77
2019-01-15T10:00:37.239Z,40.79
2019-01-15T10:01:37.466Z,40.91
2019-01-15T10:02:38.512Z,41.07
2019-01-15T10:03:37.232Z,40.69
2019-01-15T10:04:37.782Z,40.81
2019-01-15T10:05:39.393Z,40.61
2019-01-15T10:06:37.978Z,40.87
2019-01-15T10:07:37.572Z,40.88
2019-01-15T10:08:39.232Z,40.59
2019-01-15T10:09:38.434Z,40.78
2019-01-15T10:10:37.512Z,40.7
2019-01-15T10:11:39.366Z,41.12
2019-01-15T10:12:37.470Z,40.63
2019-01-15T10:13:38.658Z,40.94
2019-01-15T10:14:41.673Z,40.62
2019-01-15T10:15:37.820Z,40.86
2019-01-15T10:16:37.385Z,40.73
2019-01-15T10:17:37.529Z,40.59
2019-01-15T10:18:37.747Z,41.02
2019-01-15T10:19:37.891Z,40.76
2019-01-15T10:20:37.248Z,40.56
2019-01-15T10:21:37.303Z,40.54
2019-01-15T10:22:37.779Z,40.79
2019-01-15T10:23:37.383Z,40.53
2019-01-15T10:24:37.416Z,40.79
2019-01-15T10:25:37.565Z,40.52
2019-01-15T10:26:37.489Z,40.54
2019-01-15T10:27:37.418Z,40.57
2019-01-15T10:28:37.724Z,40.34
2019-01-15T10:29:37.664Z,40.3
2019-01-15T10:30:37.634Z,40.18
2019-01-15T10:31:37.846Z,40.15
2019-01-15T10:32:37.681Z,40.09
2019-01-15T10:33:37.444Z,40.11
2019-01-15T10:34:37.831Z,40.18
2019-01-15T10:35:37.357Z,40.13
2019-01-15T10:36:37.422Z,40.07
2019-01-15T10:37:37.575Z,40.07
2019-01-15T10:38:38.479Z,40.2
2019-01-15T10:39:37.584Z,40.2
2019-01-15T10:40:37.707Z,40.21
2019-01-15T10:41:37.314Z,40.01
2019-01-15T10:42:37.643Z,40.07
2019-01-15T10:43:37.957Z,40.06
2019-01-15T10:44:37.804Z,40.07
2019-01-15T10:45:37.431Z,40.01
2019-01-15T10:46:37.649Z,40.06
2019-01-15T10:47:37.482Z,40.05
2019-01-15T10:48:37.490Z,40.01
2019-01-15T10:49:37.631Z,40.07
2019-01-15T10:50:37.316Z,39.99
2019-01-15T10:51:37.548Z,40.05
2019-01-15T10:52:37.684Z,40.03
2019-01-15T10:53:37.630Z,39.98
2019-01-15T10:54:37.751Z,40
2019-01-15T10:55:37.597Z,40.02
2019-01-15T10:56:37.379Z,40
2019-01-15T10:57:37.421Z,40.03
2019-01-15T10:58:37.788Z,40.25
2019-01-15T10:59:37.629Z,40.24
2019-01-15T11:00:37.386Z,40.31
2019-01-15T11:01:37.745Z,40.38
2019-01-15T11:02:38.180Z,40.34
2019-01-15T11:03:37.326Z,40.47
2019-01-15T11:04:37.670Z,40.35
2019-01-15T11:05:37.666Z,40.3
2019-01-15T11:06:37.417Z,40.32
2019-01-15T11:07:37.904Z,40.26
2019-01-15T11:08:37.593Z,40.21
2019-01-15T11:09:37.324Z,40.22
2019-01-15T11:10:37.284Z,40.22
2019-01-15T11:11:37.534Z,40.14
2019-01-15T11:12:37.587Z,40.43
2019-01-15T11:13:37.269Z,40.02
2019-01-15T11:14:37.364Z,40.01
2019-01-15T11:15:43.627Z,39.95
2019-01-15T11:16:37.779Z,39.96
2019-01-15T11:17:37.725Z,40.01
2019-01-15T11:18:37.205Z,39.95
2019-01-15T11:19:37.331Z,39.96
2019-01-15T11:20:37.309Z,39.85
2019-01-15T11:21:38.055Z,39.86
2019-01-15T11:22:37.672Z,39.89
2019-01-15T11:23:37.948Z,39.99
2019-01-15T11:24:38.640Z,39.87
2019-01-15T11:25:37.849Z,39.88
2019-01-15T11:26:37.581Z,39.87
2019-01-15T11:27:37.675Z,39.85
2019-01-15T11:28:39.020Z,39.88
2019-01-15T11:29:37.634Z,39.9
2019-01-15T11:30:38.000Z,39.89
2019-01-15T11:31:37.539Z,39.9
2019-01-15T11:32:38.838Z,39.96
2019-01-15T11:33:37.710Z,39.85
2019-01-15T11:34:37.671Z,39.9
2019-01-15T11:35:37.640Z,39.9
2019-01-15T11:36:38.198Z,39.91
2019-01-15T11:37:39.213Z,39.89
2019-01-15T11:38:37.832Z,39.9
2019-01-15T11:39:37.895Z,39.91
2019-01-15T11:40:37.441Z,39.85
2019-01-15T11:41:37.767Z,39.86
2019-01-15T11:42:37.430Z,39.82
2019-01-15T11:43:39.238Z,39.94
2019-01-15T11:44:37.381Z,39.96
2019-01-15T11:45:37.406Z,40.03
2019-01-15T11:46:37.981Z,40
2019-01-15T11:47:37.678Z,40.01
2019-01-15T11:48:37.456Z,40.06
2019-01-15T11:49:37.730Z,40.06
2019-01-15T11:50:37.347Z,40.04
2019-01-15T11:51:37.324Z,40.04
2019-01-15T11:52:37.364Z,40.06
2019-01-15T11:53:37.691Z,40.05
2019-01-15T11:54:37.913Z,40.05
2019-01-15T11:55:37.314Z,40.04
2019-01-15T11:56:38.084Z,40.05
2019-01-15T11:57:37.850Z,40.02
2019-01-15T11:58:37.445Z,40.02
2019-01-15T11:59:37.656Z,40.04
2019-01-15T12:00:37.684Z,40.05
2019-01-15T12:01:37.404Z,40.04
2019-01-15T12:02:37.789Z,40.04
2019-01-15T12:03:37.342Z,40.02
2019-01-15T12:04:37.400Z,40.02
2019-01-15T12:05:37.856Z,40
2019-01-15T12:06:37.189Z,40.01
2019-01-15T12:07:37.549Z,40
2019-01-15T12:08:37.525Z,39.98
2019-01-15T12:09:38.347Z,39.97
2019-01-15T12:10:37.337Z,40.04
2019-01-15T12:11:37.464Z,40.02
2019-01-15T12:12:37.325Z,39.97
2019-01-15T12:13:37.667Z,39.93
2019-01-15T12:14:37.181Z,39.98
2019-01-15T12:15:37.690Z,40
2019-01-15T12:16:37.615Z,40.01
2019-01-15T12:17:37.589Z,39.96
2019-01-15T12:18:37.288Z,39.98
2019-01-15T12:19:37.571Z,39.98
2019-01-15T12:20:39.528Z,39.98
2019-01-15T12:21:37.967Z,39.89
2019-01-15T12:22:37.677Z,39.91
2019-01-15T12:23:37.315Z,39.97
2019-01-15T12:24:37.730Z,39.89
2019-01-15T12:25:37.512Z,39.91
2019-01-15T12:26:37.477Z,39.93
2019-01-15T12:27:37.935Z,39.87
2019-01-15T12:28:37.839Z,39.91
2019-01-15T12:29:37.429Z,39.91
2019-01-15T12:30:37.451Z,39.91
2019-01-15T12:31:37.688Z,39.9
2019-01-15T12:32:37.437Z,39.92
2019-01-15T12:33:37.450Z,39.92
2019-01-15T12:34:37.380Z,39.94
2019-01-15T12:35:37.430Z,39.87
2019-01-15T12:36:37.660Z,39.9
2019-01-15T12:37:37.665Z,39.89
2019-01-15T12:38:37.804Z,39.9
2019-01-15T12:39:37.709Z,39.88
2019-01-15T12:40:37.215Z,39.84
2019-01-15T12:41:37.695Z,39.88
2019-01-15T12:42:37.255Z,39.89
2019-01-15T12:43:37.385Z,39.91
2019-01-15T12:44:37.316Z,39.9
2019-01-15T12:45:37.422Z,39.88
2019-01-15T12:46:37.673Z,39.88
2019-01-15T12:47:37.737Z,39.88
2019-01-15T12:48:37.816Z,39.9
2019-01-15T12:49:37.707Z,39.91
2019-01-15T12:50:39.144Z,39.91
2019-01-15T12:51:37.790Z,39.94
2019-01-15T12:52:37.603Z,39.87
2019-01-15T12:53:37.225Z,39.88
2019-01-15T12:54:37.787Z,39.91
2019-01-15T12:55:37.675Z,39.94